createdAt,value
2019-02-28T00:00:12.042Z,1001.44
2019-02-28T00:01:12.850Z,1001.43
2019-02-28T00:02:12.066Z,1001.47
2019-02-28T00:03:12.084Z,1001.47
2019-02-28T00:04:12.102Z,1001.47
2019-02-28T00:05:12.120Z,1001.45
2019-02-28T00:06:12.792Z,1001.45
2019-02-28T00:07:12.157Z,1001.42
2019-02-28T00:08:12.177Z,1001.44
2019-02-28T00:09:12.195Z,1001.39
2019-02-28T00:10:12.212Z,1001.39
2019-02-28T00:11:12.259Z,1001.39
2019-02-28T00:12:13.503Z,1001.36
2019-02-28T00:13:12.266Z,1001.36
2019-02-28T00:14:12.286Z,1001.37
2019-02-28T00:15:12.304Z,1001.41
2019-02-28T00:16:12.330Z,1001.37
2019-02-28T00:17:12.342Z,1001.4
2019-02-28T00:18:15.163Z,1001.41
2019-02-28T00:19:12.376Z,1001.37
2019-02-28T00:20:12.397Z,1001.41
2019-02-28T00:21:12.415Z,1001.4
2019-02-28T00:22:14.632Z,1001.36
2019-02-28T00:23:12.452Z,1001.37
2019-02-28T00:24:12.471Z,1001.33
2019-02-28T00:25:12.489Z,1001.39
2019-02-28T00:26:12.506Z,1001.35
2019-02-28T00:27:12.525Z,1001.38
2019-02-28T00:28:12.544Z,1001.4
2019-02-28T00:29:12.561Z,1001.38
2019-02-28T00:30:12.584Z,1001.37
2019-02-28T00:31:15.238Z,1001.36
2019-02-28T00:32:12.617Z,1001.35
2019-02-28T00:33:12.643Z,1001.34
2019-02-28T00:34:12.653Z,1001.35
2019-02-28T00:35:13.338Z,1001.33
2019-02-28T00:36:12.689Z,1001.32
2019-02-28T00:37:12.711Z,1001.3
2019-02-28T00:38:12.728Z,1001.27
2019-02-28T00:39:12.748Z,1001.26
2019-02-28T00:40:12.766Z,1001.29
2019-02-28T00:41:12.783Z,1001.24
2019-02-28T00:42:17.269Z,1001.25
2019-02-28T00:43:12.819Z,1001.22
2019-02-28T00:44:12.837Z,1001.24
2019-02-28T00:45:12.859Z,1001.21
2019-02-28T00:46:12.875Z,1001.22
2019-02-28T00:47:12.893Z,1001.16
2019-02-28T00:48:12.913Z,1001.16
2019-02-28T00:49:12.931Z,1001.16
2019-02-28T00:50:12.955Z,1001.13
2019-02-28T00:51:12.966Z,1001.11
2019-02-28T00:52:12.986Z,1001.12
2019-02-28T00:53:13.005Z,1001.09
2019-02-28T00:54:13.023Z,1001.04
2019-02-28T00:55:14.429Z,1001.07
2019-02-28T00:56:13.060Z,1001.08
2019-02-28T00:57:13.077Z,1001.06
2019-02-28T00:58:13.096Z,1001.07
2019-02-28T00:59:13.115Z,1001.02
2019-02-28T01:00:13.134Z,1000.97
2019-02-28T01:01:13.154Z,1001
2019-02-28T01:02:13.170Z,1000.92
2019-02-28T01:03:13.189Z,1000.94
2019-02-28T01:04:13.209Z,1000.91
2019-02-28T01:05:13.225Z,1000.94
2019-02-28T01:06:13.245Z,1000.92
2019-02-28T01:07:16.121Z,1000.87
2019-02-28T01:08:13.283Z,1000.91
2019-02-28T01:09:13.300Z,1000.92
2019-02-28T01:10:13.319Z,1000.85
2019-02-28T01:11:13.921Z,1000.89
2019-02-28T01:12:18.680Z,1000.84
2019-02-28T01:13:13.374Z,1000.88
2019-02-28T01:14:13.392Z,1000.89
2019-02-28T01:15:13.411Z,1000.86
2019-02-28T01:16:16.039Z,1000.79
2019-02-28T01:17:13.448Z,1000.82
2019-02-28T01:18:13.467Z,1000.8
2019-02-28T01:19:13.486Z,1000.8
2019-02-28T01:20:15.998Z,1000.78
2019-02-28T01:21:13.523Z,1000.8
2019-02-28T01:22:13.541Z,1000.82
2019-02-28T01:23:13.561Z,1000.78
2019-02-28T01:24:13.578Z,1000.78
2019-02-28T01:25:13.596Z,1000.77
2019-02-28T01:26:13.615Z,1000.74
2019-02-28T01:27:13.633Z,1000.68
2019-02-28T01:28:13.650Z,1000.7
2019-02-28T01:29:13.678Z,1000.62
2019-02-28T01:30:13.693Z,1000.65
2019-02-28T01:31:13.707Z,1000.62
2019-02-28T01:32:15.624Z,1000.6
2019-02-28T01:33:13.744Z,1000.59
2019-02-28T01:34:13.762Z,1000.61
2019-02-28T01:35:13.781Z,1000.56
2019-02-28T01:36:15.486Z,1000.6
2019-02-28T01:37:13.819Z,1000.54
2019-02-28T01:38:13.886Z,1000.54
2019-02-28T01:39:13.857Z,1000.54
2019-02-28T01:40:13.874Z,1000.53
2019-02-28T01:41:13.892Z,1000.49
2019-02-28T01:42:16.202Z,1000.48
2019-02-28T01:43:13.930Z,1000.41
2019-02-28T01:44:13.947Z,1000.42
2019-02-28T01:45:13.970Z,1000.38
2019-02-28T01:46:14.390Z,1000.34
2019-02-28T01:47:14.002Z,1000.39
2019-02-28T01:48:14.024Z,1000.38
2019-02-28T01:49:14.039Z,1000.34
2019-02-28T01:50:14.058Z,1000.38
2019-02-28T01:51:14.092Z,1000.32
2019-02-28T01:52:14.096Z,1000.28
2019-02-28T01:53:18.417Z,1000.28
2019-02-28T01:54:14.132Z,1000.3
2019-02-28T01:55:14.149Z,1000.32
2019-02-28T01:56:14.169Z,1000.26
2019-02-28T01:57:14.189Z,1000.26
2019-02-28T01:58:16.704Z,1000.29
2019-02-28T01:59:14.226Z,1000.25
2019-02-28T02:00:14.243Z,1000.24
2019-02-28T02:01:14.262Z,1000.22
2019-02-28T02:02:14.280Z,1000.26
2019-02-28T02:03:14.299Z,1000.26
2019-02-28T02:04:14.316Z,1000.2
2019-02-28T02:05:16.813Z,1000.21
2019-02-28T02:06:14.354Z,1000.23
2019-02-28T02:07:14.372Z,1000.24
2019-02-28T02:08:14.390Z,1000.24
2019-02-28T02:09:14.409Z,1000.18
2019-02-28T02:10:14.429Z,1000.18
2019-02-28T02:11:14.445Z,1000.19
2019-02-28T02:12:14.465Z,1000.18
2019-02-28T02:13:14.482Z,1000.15
2019-02-28T02:14:14.503Z,1000.14
2019-02-28T02:15:16.767Z,1000.16
2019-02-28T02:16:14.538Z,1000.13
2019-02-28T02:17:14.558Z,1000.18
2019-02-28T02:18:14.574Z,1000.15
2019-02-28T02:19:18.434Z,1000.17
2019-02-28T02:20:14.613Z,1000.17
2019-02-28T02:21:14.631Z,1000.13
2019-02-28T02:22:14.650Z,1000.12
2019-02-28T02:23:17.615Z,1000.12
2019-02-28T02:24:14.691Z,1000.06
2019-02-28T02:25:14.712Z,1000.04
2019-02-28T02:26:14.723Z,1000.05
2019-02-28T02:27:16.198Z,1000.02
2019-02-28T02:28:14.760Z,1000.03
2019-02-28T02:29:14.777Z,1000.03
2019-02-28T02:30:15.853Z,999.96
2019-02-28T02:31:14.815Z,999.94
2019-02-28T02:32:14.837Z,999.95
2019-02-28T02:33:15.614Z,999.97
2019-02-28T02:34:14.872Z,999.91
2019-02-28T02:35:14.894Z,999.88
2019-02-28T02:36:16.227Z,999.89
2019-02-28T02:37:14.925Z,999.85
2019-02-28T02:38:14.945Z,999.81
2019-02-28T02:39:17.470Z,999.81
2019-02-28T02:40:14.980Z,999.84
2019-02-28T02:41:14.999Z,999.82
2019-02-28T02:42:15.020Z,999.8
2019-02-28T02:43:15.036Z,999.78
2019-02-28T02:44:15.055Z,999.76
2019-02-28T02:45:15.078Z,999.74
2019-02-28T02:46:19.440Z,999.72
2019-02-28T02:47:15.110Z,999.71
2019-02-28T02:48:15.129Z,999.69
2019-02-28T02:49:19.756Z,999.69
2019-02-28T02:50:15.173Z,999.72
2019-02-28T02:51:15.184Z,999.68
2019-02-28T02:52:15.201Z,999.68
2019-02-28T02:53:15.219Z,999.66
2019-02-28T02:54:19.480Z,999.68
2019-02-28T02:55:15.256Z,999.67
2019-02-28T02:56:15.276Z,999.66
2019-02-28T02:57:15.720Z,999.67
2019-02-28T02:58:15.311Z,999.67
2019-02-28T02:59:15.329Z,999.66
2019-02-28T03:00:15.424Z,999.69
2019-02-28T03:01:15.367Z,999.68
2019-02-28T03:02:15.385Z,999.63
2019-02-28T03:03:15.413Z,999.63
2019-02-28T03:04:21.344Z,999.62
2019-02-28T03:05:15.439Z,999.66
2019-02-28T03:06:15.458Z,999.66
2019-02-28T03:07:22.883Z,999.62
2019-02-28T03:08:15.495Z,999.64
2019-02-28T03:09:15.563Z,999.61
2019-02-28T03:10:17.217Z,999.61
2019-02-28T03:11:15.550Z,999.59
2019-02-28T03:12:15.569Z,999.56
2019-02-28T03:13:15.587Z,999.56
2019-02-28T03:14:17.256Z,999.57
2019-02-28T03:15:15.623Z,999.56
2019-02-28T03:16:15.656Z,999.54
2019-02-28T03:17:15.661Z,999.5
2019-02-28T03:18:20.368Z,999.51
2019-02-28T03:19:15.696Z,999.5
2019-02-28T03:20:15.713Z,999.5
2019-02-28T03:21:16.522Z,999.46
2019-02-28T03:22:15.751Z,999.44
2019-02-28T03:23:15.773Z,999.43
2019-02-28T03:24:16.403Z,999.41
2019-02-28T03:25:15.817Z,999.39
2019-02-28T03:26:15.827Z,999.4
2019-02-28T03:27:18.941Z,999.38
2019-02-28T03:28:15.862Z,999.39
2019-02-28T03:29:15.881Z,999.33
2019-02-28T03:30:25.690Z,999.33
2019-02-28T03:31:16.135Z,999.31
2019-02-28T03:32:15.948Z,999.26
2019-02-28T03:33:25.102Z,999.29
2019-02-28T03:34:15.973Z,999.26
2019-02-28T03:35:15.999Z,999.28
2019-02-28T03:36:16.878Z,999.21
2019-02-28T03:37:16.030Z,999.21
2019-02-28T03:38:16.047Z,999.21
2019-02-28T03:39:16.066Z,999.24
2019-02-28T03:40:16.113Z,999.16
2019-02-28T03:41:17.864Z,999.16
2019-02-28T03:42:16.126Z,999.11
2019-02-28T03:43:16.139Z,999.13
2019-02-28T03:44:21.229Z,999.11
2019-02-28T03:45:16.186Z,999.08
2019-02-28T03:46:16.192Z,999.07
2019-02-28T03:47:22.444Z,999.03
2019-02-28T03:48:16.229Z,999.02
2019-02-28T03:49:16.247Z,999.04
2019-02-28T03:50:16.267Z,999.01
2019-02-28T03:51:16.288Z,999
2019-02-28T03:52:16.302Z,999.03
2019-02-28T03:53:19.861Z,999.02
2019-02-28T03:54:16.337Z,999.04
2019-02-28T03:55:16.361Z,999.03
2019-02-28T03:56:16.375Z,999.03
2019-02-28T03:57:16.392Z,999.02
2019-02-28T03:58:16.412Z,999.04
2019-02-28T03:59:18.767Z,999.04
2019-02-28T04:00:16.449Z,999.02
2019-02-28T04:01:16.472Z,999.03
2019-02-28T04:02:20.733Z,999.06
2019-02-28T04:03:16.506Z,999.05
2019-02-28T04:04:16.528Z,999.07
2019-02-28T04:05:16.539Z,999.07
2019-02-28T04:06:16.559Z,999.09
2019-02-28T04:07:17.063Z,999.11
2019-02-28T04:08:16.594Z,999.13
2019-02-28T04:09:16.612Z,999.19
2019-02-28T04:10:21.648Z,999.2
2019-02-28T04:11:16.649Z,999.18
2019-02-28T04:12:16.666Z,999.2
2019-02-28T04:13:19.117Z,999.18
2019-02-28T04:14:16.704Z,999.16
2019-02-28T04:15:16.720Z,999.17
2019-02-28T04:16:16.738Z,999.11
2019-02-28T04:17:16.757Z,999.17
2019-02-28T04:18:16.776Z,999.16
2019-02-28T04:19:21.038Z,999.16
2019-02-28T04:20:16.818Z,999.17
2019-02-28T04:21:16.832Z,999.17
2019-02-28T04:22:19.385Z,999.13
2019-02-28T04:23:16.866Z,999.16
2019-02-28T04:24:16.933Z,999.13
2019-02-28T04:25:19.436Z,999.11
2019-02-28T04:26:16.919Z,999.14
2019-02-28T04:27:16.939Z,999.13
2019-02-28T04:28:18.743Z,999.1
2019-02-28T04:29:16.975Z,999.09
2019-02-28T04:30:16.994Z,999.09
2019-02-28T04:31:19.926Z,999.09
2019-02-28T04:32:17.030Z,999.11
2019-02-28T04:33:17.075Z,999.13
2019-02-28T04:34:17.065Z,999.09
2019-02-28T04:35:17.085Z,999.09
2019-02-28T04:36:17.103Z,999.12
2019-02-28T04:37:17.119Z,999.15
2019-02-28T04:38:20.177Z,999.14
2019-02-28T04:39:17.156Z,999.1
2019-02-28T04:40:17.173Z,999.17
2019-02-28T04:41:17.190Z,999.14
2019-02-28T04:42:17.209Z,999.14
2019-02-28T04:43:17.228Z,999.15
2019-02-28T04:44:18.202Z,999.14
2019-02-28T04:45:17.264Z,999.12
2019-02-28T04:46:17.281Z,999.14
2019-02-28T04:47:17.301Z,999.1
2019-02-28T04:48:17.316Z,999.08
2019-02-28T04:49:21.447Z,999.11
2019-02-28T04:50:17.357Z,999.1
2019-02-28T04:51:17.372Z,999.07
2019-02-28T04:52:17.390Z,999.05
2019-02-28T04:53:18.837Z,999.04
2019-02-28T04:54:17.426Z,999.03
2019-02-28T04:55:17.444Z,998.99
2019-02-28T04:56:17.463Z,999.01
2019-02-28T04:57:20.643Z,998.98
2019-02-28T04:58:17.510Z,999
2019-02-28T04:59:17.516Z,998.96
2019-02-28T05:00:17.535Z,998.94
2019-02-28T05:01:17.555Z,998.97
2019-02-28T05:02:19.882Z,998.96
2019-02-28T05:03:17.591Z,998.97
2019-02-28T05:04:17.607Z,998.99
2019-02-28T05:05:17.624Z,998.93
2019-02-28T05:06:18.249Z,998.98
2019-02-28T05:07:17.662Z,998.97
2019-02-28T05:08:17.680Z,999.01
2019-02-28T05:09:17.699Z,999
2019-02-28T05:10:19.188Z,999.03
2019-02-28T05:11:17.739Z,999.02
2019-02-28T05:12:17.751Z,998.98
2019-02-28T05:13:17.775Z,999.02
2019-02-28T05:14:23.306Z,998.99
2019-02-28T05:15:17.806Z,998.98
2019-02-28T05:16:17.832Z,998.94
2019-02-28T05:17:19.283Z,998.96
2019-02-28T05:18:17.863Z,998.95
2019-02-28T05:19:17.878Z,998.96
2019-02-28T05:20:17.897Z,998.9
2019-02-28T05:21:19.462Z,998.8
2019-02-28T05:22:17.932Z,998.86
2019-02-28T05:23:17.951Z,998.76
2019-02-28T05:24:17.971Z,998.77
2019-02-28T05:25:18.801Z,998.72
2019-02-28T05:26:18.005Z,998.75
2019-02-28T05:27:18.025Z,998.74
2019-02-28T05:28:18.043Z,998.73
2019-02-28T05:29:18.061Z,998.74
2019-02-28T05:30:19.573Z,998.76
2019-02-28T05:31:18.099Z,998.75
2019-02-28T05:32:18.114Z,998.79
2019-02-28T05:33:18.132Z,998.84
2019-02-28T05:34:18.151Z,998.84
2019-02-28T05:35:18.168Z,998.84
2019-02-28T05:36:18.186Z,998.83
2019-02-28T05:37:18.205Z,998.88
2019-02-28T05:38:20.919Z,998.88
2019-02-28T05:39:18.240Z,998.88
2019-02-28T05:40:18.258Z,998.87
2019-02-28T05:41:18.276Z,998.93
2019-02-28T05:42:20.221Z,998.91
2019-02-28T05:43:18.319Z,998.95
2019-02-28T05:44:18.337Z,998.9
2019-02-28T05:45:18.351Z,998.95
2019-02-28T05:46:20.219Z,998.97
2019-02-28T05:47:18.401Z,998.97
2019-02-28T05:48:18.407Z,998.98
2019-02-28T05:49:18.421Z,998.99
2019-02-28T05:50:18.440Z,999
2019-02-28T05:51:18.458Z,999
2019-02-28T05:52:18.476Z,998.99
2019-02-28T05:53:18.494Z,999
2019-02-28T05:54:18.520Z,998.99
2019-02-28T05:55:24.219Z,999.02
2019-02-28T05:56:18.547Z,999.04
2019-02-28T05:57:18.566Z,999.03
2019-02-28T05:58:20.294Z,999
2019-02-28T05:59:18.601Z,998.98
2019-02-28T06:00:18.620Z,999
2019-02-28T06:01:18.637Z,999.01
2019-02-28T06:02:18.847Z,998.98
2019-02-28T06:03:18.675Z,998.95
2019-02-28T06:04:18.693Z,998.95
2019-02-28T06:05:18.709Z,998.98
2019-02-28T06:06:20.127Z,999
2019-02-28T06:07:18.746Z,998.99
2019-02-28T06:08:18.766Z,999
2019-02-28T06:09:18.781Z,998.99
2019-02-28T06:10:23.334Z,999
2019-02-28T06:11:18.819Z,998.99
2019-02-28T06:12:18.836Z,999
2019-02-28T06:13:18.953Z,998.98
2019-02-28T06:14:18.873Z,998.97
2019-02-28T06:15:18.891Z,998.94
2019-02-28T06:16:18.908Z,998.94
2019-02-28T06:17:20.620Z,998.89
2019-02-28T06:18:18.944Z,998.89
2019-02-28T06:19:20.307Z,998.9
2019-02-28T06:20:18.983Z,998.91
2019-02-28T06:21:18.998Z,998.88
2019-02-28T06:22:19.021Z,998.91
2019-02-28T06:23:19.034Z,998.87
2019-02-28T06:24:19.055Z,998.87
2019-02-28T06:25:23.530Z,998.83
2019-02-28T06:26:19.089Z,998.85
2019-02-28T06:27:19.106Z,998.82
2019-02-28T06:28:19.125Z,998.8
2019-02-28T06:29:19.141Z,998.74
2019-02-28T06:30:19.262Z,998.8
2019-02-28T06:31:19.235Z,998.68
2019-02-28T06:32:22.976Z,998.73
2019-02-28T06:33:21.157Z,998.73
2019-02-28T06:34:19.245Z,998.77
2019-02-28T06:35:20.419Z,998.76
2019-02-28T06:36:19.269Z,998.74
2019-02-28T06:37:19.287Z,998.76
2019-02-28T06:38:19.876Z,998.71
2019-02-28T06:39:19.323Z,998.73
2019-02-28T06:40:19.342Z,998.73
2019-02-28T06:41:19.364Z,998.71
2019-02-28T06:42:19.377Z,998.69
2019-02-28T06:43:19.584Z,998.67
2019-02-28T06:44:19.415Z,998.74
2019-02-28T06:45:19.433Z,998.72
2019-02-28T06:46:19.449Z,998.71
2019-02-28T06:47:19.477Z,998.73
2019-02-28T06:48:20.353Z,998.72
2019-02-28T06:49:19.504Z,998.71
2019-02-28T06:50:19.522Z,998.71
2019-02-28T06:51:19.540Z,998.77
2019-02-28T06:52:22.237Z,998.78
2019-02-28T06:53:19.576Z,998.75
2019-02-28T06:54:19.595Z,998.74
2019-02-28T06:55:19.612Z,998.8
2019-02-28T06:56:22.433Z,998.82
2019-02-28T06:57:19.648Z,998.85
2019-02-28T06:58:19.667Z,998.8
2019-02-28T06:59:19.687Z,998.81
2019-02-28T07:00:19.702Z,998.77
2019-02-28T07:01:22.626Z,998.79
2019-02-28T07:02:19.738Z,998.77
2019-02-28T07:03:19.757Z,998.77
2019-02-28T07:04:19.774Z,998.76
2019-02-28T07:05:24.236Z,998.73
2019-02-28T07:06:19.816Z,998.73
2019-02-28T07:07:19.829Z,998.79
2019-02-28T07:08:20.610Z,998.72
2019-02-28T07:09:19.865Z,998.7
2019-02-28T07:10:19.951Z,998.72
2019-02-28T07:11:20.735Z,998.72
2019-02-28T07:12:19.920Z,998.73
2019-02-28T07:13:19.937Z,998.7
2019-02-28T07:14:19.955Z,998.7
2019-02-28T07:15:23.224Z,998.76
2019-02-28T07:16:20.004Z,998.78
2019-02-28T07:17:20.010Z,998.78
2019-02-28T07:18:20.067Z,998.82
2019-02-28T07:19:20.046Z,998.83
2019-02-28T07:20:20.065Z,998.8
2019-02-28T07:21:20.083Z,998.81
2019-02-28T07:22:20.706Z,998.85
2019-02-28T07:23:22.113Z,998.88
2019-02-28T07:24:20.141Z,998.85
2019-02-28T07:25:20.158Z,998.88
2019-02-28T07:26:20.173Z,998.88
2019-02-28T07:27:20.193Z,998.89
2019-02-28T07:28:20.216Z,998.85
2019-02-28T07:29:20.228Z,998.86
2019-02-28T07:30:20.246Z,998.85
2019-02-28T07:31:21.586Z,998.83
2019-02-28T07:32:20.283Z,998.81
2019-02-28T07:33:20.303Z,998.82
2019-02-28T07:34:23.751Z,998.79
2019-02-28T07:35:20.338Z,998.78
2019-02-28T07:36:20.355Z,998.75
2019-02-28T07:37:20.376Z,998.72
2019-02-28T07:38:20.397Z,998.75
2019-02-28T07:39:20.428Z,998.71
2019-02-28T07:40:20.430Z,998.77
2019-02-28T07:41:26.143Z,998.74
2019-02-28T07:42:20.468Z,998.81
2019-02-28T07:43:20.486Z,998.83
2019-02-28T07:44:22.106Z,998.83
2019-02-28T07:45:20.520Z,998.9
2019-02-28T07:46:20.555Z,998.98
2019-02-28T07:47:20.560Z,999.01
2019-02-28T07:48:26.376Z,998.99
2019-02-28T07:49:20.594Z,999.02
2019-02-28T07:50:20.615Z,999.02
2019-02-28T07:51:22.193Z,999
2019-02-28T07:52:20.649Z,999.02
2019-02-28T07:53:20.668Z,999.03
2019-02-28T07:54:20.687Z,998.99
2019-02-28T07:55:20.703Z,999.02
2019-02-28T07:56:20.756Z,999.02
2019-02-28T07:57:22.398Z,999.01
2019-02-28T07:58:20.768Z,999
2019-02-28T07:59:20.802Z,998.97
2019-02-28T08:00:20.795Z,998.98
2019-02-28T08:01:20.814Z,999
2019-02-28T08:02:20.837Z,998.97
2019-02-28T08:03:20.850Z,999.02
2019-02-28T08:04:20.868Z,999.04
2019-02-28T08:05:20.891Z,999.05
2019-02-28T08:06:20.907Z,999.03
2019-02-28T08:07:20.924Z,999.03
2019-02-28T08:08:23.357Z,999.03
2019-02-28T08:09:20.962Z,999.09
2019-02-28T08:10:20.981Z,999.07
2019-02-28T08:11:21.006Z,999.09
2019-02-28T08:12:21.016Z,999.08
2019-02-28T08:13:21.035Z,999.05
2019-02-28T08:14:21.053Z,999.06
2019-02-28T08:15:22.460Z,999.05
2019-02-28T08:16:21.090Z,999.05
2019-02-28T08:17:21.109Z,999.09
2019-02-28T08:18:21.128Z,999.05
2019-02-28T08:19:22.820Z,999.07
2019-02-28T08:20:21.164Z,999.03
2019-02-28T08:21:21.183Z,998.99
2019-02-28T08:22:24.176Z,998.99
2019-02-28T08:23:21.221Z,998.91
2019-02-28T08:24:21.239Z,998.88
2019-02-28T08:25:21.257Z,998.83
2019-02-28T08:26:21.278Z,998.85
2019-02-28T08:27:21.293Z,998.88
2019-02-28T08:28:21.313Z,998.88
2019-02-28T08:29:21.331Z,998.86
2019-02-28T08:30:21.350Z,998.79
2019-02-28T08:31:21.419Z,998.84
2019-02-28T08:32:21.389Z,998.85
2019-02-28T08:33:21.407Z,998.89
2019-02-28T08:34:23.780Z,998.85
2019-02-28T08:35:21.450Z,998.85
2019-02-28T08:36:21.461Z,998.86
2019-02-28T08:37:22.445Z,998.81
2019-02-28T08:38:21.497Z,998.82
2019-02-28T08:39:21.567Z,998.88
2019-02-28T08:40:21.536Z,998.88
2019-02-28T08:41:22.425Z,998.85
2019-02-28T08:42:21.571Z,998.87
2019-02-28T08:43:26.995Z,998.84
2019-02-28T08:44:23.738Z,998.82
2019-02-28T08:45:21.628Z,998.83
2019-02-28T08:46:21.649Z,998.86
2019-02-28T08:47:21.866Z,998.82
2019-02-28T08:48:21.688Z,998.84
2019-02-28T08:49:21.702Z,998.85
2019-02-28T08:50:23.533Z,998.9
2019-02-28T08:51:23.070Z,998.85
2019-02-28T08:52:21.761Z,998.93
2019-02-28T08:53:21.777Z,998.92
2019-02-28T08:54:26.037Z,998.87
2019-02-28T08:55:28.511Z,998.96
2019-02-28T08:56:21.833Z,998.94
2019-02-28T08:57:25.338Z,998.95
2019-02-28T08:58:21.875Z,998.89
2019-02-28T08:59:22.731Z,998.97
2019-02-28T09:00:21.906Z,998.98
2019-02-28T09:01:21.926Z,999.01
2019-02-28T09:02:21.945Z,999.01
2019-02-28T09:03:24.223Z,999.03
2019-02-28T09:04:21.982Z,999.03
2019-02-28T09:05:25.393Z,998.97
2019-02-28T09:06:22.019Z,998.96
2019-02-28T09:07:22.039Z,998.98
2019-02-28T09:08:22.388Z,999
2019-02-28T09:09:22.075Z,998.96
2019-02-28T09:10:22.094Z,998.9
2019-02-28T09:11:22.111Z,998.89
2019-02-28T09:12:22.130Z,998.87
2019-02-28T09:13:22.152Z,998.85
2019-02-28T09:14:22.168Z,998.86
2019-02-28T09:15:22.190Z,998.91
2019-02-28T09:16:22.206Z,998.87
2019-02-28T09:17:22.224Z,998.88
2019-02-28T09:18:22.249Z,998.86
2019-02-28T09:19:22.263Z,998.91
2019-02-28T09:20:22.280Z,998.82
2019-02-28T09:21:22.300Z,998.87
2019-02-28T09:22:26.786Z,998.86
2019-02-28T09:23:23.515Z,998.8
2019-02-28T09:24:22.355Z,998.79
2019-02-28T09:25:22.866Z,998.76
2019-02-28T09:26:22.393Z,998.72
2019-02-28T09:27:22.414Z,998.74
2019-02-28T09:28:22.431Z,998.69
2019-02-28T09:29:22.451Z,998.65
2019-02-28T09:30:22.467Z,998.63
2019-02-28T09:31:22.490Z,998.7
2019-02-28T09:32:22.505Z,998.65
2019-02-28T09:33:23.174Z,998.66
2019-02-28T09:34:22.543Z,998.65
2019-02-28T09:35:22.563Z,998.64
2019-02-28T09:36:22.580Z,998.64
2019-02-28T09:37:22.598Z,998.62
2019-02-28T09:38:22.618Z,998.63
2019-02-28T09:39:22.637Z,998.62
2019-02-28T09:40:25.631Z,998.68
2019-02-28T09:41:22.674Z,998.64
2019-02-28T09:42:22.693Z,998.62
2019-02-28T09:43:23.822Z,998.65
2019-02-28T09:44:22.730Z,998.64
2019-02-28T09:45:22.749Z,998.62
2019-02-28T09:46:22.768Z,998.64
2019-02-28T09:47:23.297Z,998.6
2019-02-28T09:48:22.803Z,998.63
2019-02-28T09:49:22.825Z,998.6
2019-02-28T09:50:23.399Z,998.59
2019-02-28T09:51:22.862Z,998.56
2019-02-28T09:52:22.880Z,998.61
2019-02-28T09:53:22.903Z,998.68
2019-02-28T09:54:24.349Z,998.72
2019-02-28T09:55:22.937Z,998.71
2019-02-28T09:56:22.956Z,998.67
2019-02-28T09:57:22.975Z,998.69
2019-02-28T09:58:22.998Z,998.65
2019-02-28T09:59:23.013Z,998.68
2019-02-28T10:00:23.032Z,998.68
2019-02-28T10:01:24.392Z,998.68
2019-02-28T10:02:23.069Z,998.68
2019-02-28T10:03:23.089Z,998.68
2019-02-28T10:04:23.107Z,998.73
2019-02-28T10:05:23.128Z,998.74
2019-02-28T10:06:23.144Z,998.76
2019-02-28T10:07:26.368Z,998.74
2019-02-28T10:08:23.182Z,998.77
2019-02-28T10:09:23.202Z,998.73
2019-02-28T10:10:23.220Z,998.72
2019-02-28T10:11:23.238Z,998.77
2019-02-28T10:12:23.258Z,998.74
2019-02-28T10:13:23.276Z,998.74
2019-02-28T10:14:25.590Z,998.74
2019-02-28T10:15:23.317Z,998.73
2019-02-28T10:16:23.340Z,998.76
2019-02-28T10:17:25.844Z,998.73
2019-02-28T10:18:23.372Z,998.69
2019-02-28T10:19:23.822Z,998.65
2019-02-28T10:20:26.906Z,998.68
2019-02-28T10:21:25.253Z,998.64
2019-02-28T10:22:23.447Z,998.65
2019-02-28T10:23:23.466Z,998.62
2019-02-28T10:24:24.660Z,998.64
2019-02-28T10:25:23.503Z,998.66
2019-02-28T10:26:23.523Z,998.62
2019-02-28T10:27:26.718Z,998.61
2019-02-28T10:28:23.561Z,998.62
2019-02-28T10:29:23.581Z,998.61
2019-02-28T10:30:31.022Z,998.65
2019-02-28T10:31:34.761Z,998.58
2019-02-28T10:32:23.636Z,998.61
2019-02-28T10:33:23.656Z,998.59
2019-02-28T10:34:26.338Z,998.58
2019-02-28T10:35:23.693Z,998.57
2019-02-28T10:36:23.713Z,998.59
2019-02-28T10:37:23.732Z,998.54
2019-02-28T10:38:23.751Z,998.58
2019-02-28T10:39:23.769Z,998.6
2019-02-28T10:40:23.789Z,998.59
2019-02-28T10:41:24.161Z,998.59
2019-02-28T10:42:23.828Z,998.56
2019-02-28T10:43:23.847Z,998.59
2019-02-28T10:44:23.865Z,998.54
2019-02-28T10:45:23.884Z,998.58
2019-02-28T10:46:23.906Z,998.57
2019-02-28T10:47:27.972Z,998.48
2019-02-28T10:48:23.942Z,998.55
2019-02-28T10:49:24.868Z,998.55
2019-02-28T10:50:25.845Z,998.53
2019-02-28T10:51:23.999Z,998.5
2019-02-28T10:52:26.881Z,998.49
2019-02-28T10:53:24.037Z,998.49
2019-02-28T10:54:24.057Z,998.5
2019-02-28T10:55:24.074Z,998.48
2019-02-28T10:56:24.096Z,998.48
2019-02-28T10:57:24.113Z,998.46
2019-02-28T10:58:24.134Z,998.48
2019-02-28T10:59:24.470Z,998.54
2019-02-28T11:00:24.171Z,998.48
2019-02-28T11:01:24.190Z,998.53
2019-02-28T11:02:24.209Z,998.51
2019-02-28T11:03:24.231Z,998.51
2019-02-28T11:04:24.249Z,998.49
2019-02-28T11:05:24.269Z,998.51
2019-02-28T11:06:25.229Z,998.53
2019-02-28T11:07:24.338Z,998.52
2019-02-28T11:08:24.325Z,998.45
2019-02-28T11:09:25.428Z,998.45
2019-02-28T11:10:24.364Z,998.46
2019-02-28T11:11:24.385Z,998.42
2019-02-28T11:12:24.403Z,998.43
2019-02-28T11:13:24.422Z,998.41
2019-02-28T11:14:24.486Z,998.37
2019-02-28T11:15:24.461Z,998.41
2019-02-28T11:16:24.580Z,998.44
2019-02-28T11:17:24.500Z,998.45
2019-02-28T11:18:24.521Z,998.43
2019-02-28T11:19:24.538Z,998.42
2019-02-28T11:20:26.067Z,998.47
2019-02-28T11:21:24.577Z,998.47
2019-02-28T11:22:24.597Z,998.41
2019-02-28T11:23:24.616Z,998.42
2019-02-28T11:24:26.996Z,998.43
2019-02-28T11:25:24.656Z,998.43
2019-02-28T11:26:24.675Z,998.4
2019-02-28T11:27:24.695Z,998.36
2019-02-28T11:28:27.710Z,998.31
2019-02-28T11:29:24.735Z,998.29
2019-02-28T11:30:24.754Z,998.27
2019-02-28T11:31:25.788Z,998.27
2019-02-28T11:32:26.385Z,998.32
2019-02-28T11:33:24.814Z,998.28
2019-02-28T11:34:24.834Z,998.28
2019-02-28T11:35:24.850Z,998.27
2019-02-28T11:36:24.870Z,998.31
2019-02-28T11:37:24.889Z,998.2
2019-02-28T11:38:24.909Z,998.25
2019-02-28T11:39:27.515Z,998.22
2019-02-28T11:40:24.952Z,998.21
2019-02-28T11:41:24.967Z,998.26
2019-02-28T11:42:27.993Z,998.21
2019-02-28T11:43:26.722Z,998.22
2019-02-28T11:44:25.027Z,998.19
2019-02-28T11:45:25.482Z,998.26
2019-02-28T11:46:25.065Z,998.24
2019-02-28T11:47:25.085Z,998.17
2019-02-28T11:48:25.113Z,998.16
2019-02-28T11:49:25.566Z,998.12
2019-02-28T11:50:25.144Z,998.12
2019-02-28T11:51:25.164Z,998.12
2019-02-28T11:52:27.333Z,998.19
2019-02-28T11:53:25.203Z,998.17
2019-02-28T11:54:25.221Z,998.21
2019-02-28T11:55:27.077Z,998.23
2019-02-28T11:56:25.500Z,998.17
2019-02-28T11:57:25.280Z,998.13
2019-02-28T11:58:25.301Z,998.14
2019-02-28T11:59:25.433Z,998.12
2019-02-28T12:00:25.339Z,998.16
2019-02-28T12:01:25.359Z,998.13
2019-02-28T12:02:25.380Z,998.14
2019-02-28T12:03:25.398Z,998.14
2019-02-28T12:04:25.468Z,998.15
2019-02-28T12:05:25.440Z,998.19
2019-02-28T12:06:26.295Z,998.14
2019-02-28T12:07:25.476Z,998.15
2019-02-28T12:08:25.498Z,998.11
2019-02-28T12:09:25.523Z,998.07
2019-02-28T12:10:26.877Z,998.03
2019-02-28T12:11:25.555Z,998
2019-02-28T12:12:25.576Z,998.03
2019-02-28T12:13:25.596Z,998.03
2019-02-28T12:14:26.329Z,998.04
2019-02-28T12:15:25.635Z,998.04
2019-02-28T12:16:25.654Z,998
2019-02-28T12:17:28.509Z,998.05
2019-02-28T12:18:26.193Z,998.07
2019-02-28T12:19:25.714Z,998.04
2019-02-28T12:20:26.376Z,998.04
2019-02-28T12:21:25.751Z,998.06
2019-02-28T12:22:25.772Z,998.07
2019-02-28T12:23:25.792Z,998.06
2019-02-28T12:24:25.812Z,998.07
2019-02-28T12:25:25.832Z,998.05
2019-02-28T12:26:25.852Z,998.01
2019-02-28T12:27:27.387Z,997.99